Time;durP1;ratioP1;P1;durP2;ratioP2;P2;SDS_P1;SDS_P2;PMS_P1;PMS_P2;Temp;Humidity;BMP_temperature;BMP_pressure;BME280_temperature;BME280_humidity;BME280_pressure;Samples;Min_cycle;Max_cycle;Signal;HPM_P1;HPM_P2
2024/01/07 00:00:16;;;;;;;28.17;18.65;;;;;;;;;;491057;28;940;-69
2024/01/07 00:00:32;;;;;;;27.77;18.70;;;;;;;;;;491000;28;1138;-69
2024/01/07 00:00:47;;;;;;;27.70;18.70;;;;;;;;;;488858;28;1065;-69
2024/01/07 00:01:03;;;;;;;28.00;18.67;;;;;;;;;;488991;28;1337;-69
2024/01/07 00:01:19;;;;;;;28.73;18.42;;;;;;;;;;487226;28;1204;-69
2024/01/07 00:01:34;;;;;;;29.27;18.53;;;;;;;;;;489518;28;1387;-69
2024/01/07 00:01:50;;;;;;;28.67;18.70;;;;;;;;;;491227;28;1074;-69
2024/01/07 00:02:05;;;;;;;28.30;18.80;;;;;;;;;;490439;28;1215;-69
2024/01/07 00:02:21;;;;;;;27.88;18.63;;;;;;;;;;490214;28;1246;-69
2024/01/07 00:02:37;;;;;;;28.63;18.55;;;;;;;;;;488360;28;960;-69
2024/01/07 00:02:52;;;;;;;29.15;18.85;;;;;;;;;;491892;28;1554;-69
2024/01/07 00:03:08;;;;;;;29.50;18.90;;;;;;;;;;490994;28;1322;-69
2024/01/07 00:03:24;;;;;;;29.52;19.00;;;;;;;;;;494433;28;961;-69
2024/01/07 00:03:42;;;;;;;29.97;19.30;;;;;;;;;;491702;28;1196;-69
2024/01/07 00:03:57;;;;;;;28.80;18.77;;;;;;;;;;491851;28;2110;-69
2024/01/07 00:04:15;;;;;;;28.50;18.25;;;;;;;;;;489873;28;937;-68
2024/01/07 00:04:30;;;;;;;27.20;18.23;;;;;;;;;;488252;28;1156;-69
2024/01/07 00:04:46;;;;;;;27.67;18.30;;;;;;;;;;486114;28;1083;-70
2024/01/07 00:05:01;;;;;;;28.13;17.67;;;;;;;;;;487364;28;1224;-69
2024/01/07 00:05:17;;;;;;;27.77;17.67;;;;;;;;;;490160;28;1217;-69
2024/01/07 00:05:32;;;;;;;27.75;18.30;;;;;;;;;;487730;28;1264;-69
2024/01/07 00:05:48;;;;;;;27.20;18.20;;;;;;;;;;487134;28;1416;-69
2024/01/07 00:06:04;;;;;;;26.67;17.70;;;;;;;;;;489937;28;1351;-69
2024/01/07 00:06:19;;;;;;;26.65;17.50;;;;;;;;;;490252;28;1263;-68
2024/01/07 00:06:35;;;;;;;28.25;18.20;;;;;;;;;;484793;28;1295;-69
2024/01/07 00:06:51;;;;;;;28.40;18.83;;;;;;;;;;484301;28;1316;-69
2024/01/07 00:07:06;;;;;;;27.92;18.88;;;;;;;;;;486804;28;1355;-69
2024/01/07 00:07:22;;;;;;;28.13;18.40;;;;;;;;;;485583;28;996;-69
2024/01/07 00:07:37;;;;;;;27.38;18.35;;;;;;;;;;486219;28;3054;-69
2024/01/07 00:07:53;;;;;;;27.40;18.52;;;;;;;;;;487063;28;1453;-70
2024/01/07 00:08:08;;;;;;;29.10;18.93;;;;;;;;;;489244;28;1122;-70
2024/01/07 00:08:24;;;;;;;28.05;18.63;;;;;;;;;;490566;28;1215;-69
2024/01/07 00:08:40;;;;;;;25.67;17.73;;;;;;;;;;487278;28;1225;-70
2024/01/07 00:08:55;;;;;;;27.05;17.92;;;;;;;;;;489235;28;1271;-69
2024/01/07 00:09:12;;;;;;;27.52;17.83;;;;;;;;;;493483;28;977;-70
2024/01/07 00:09:28;;;;;;;26.90;18.02;;;;;;;;;;494663;28;1069;-69
2024/01/07 00:09:43;;;;;;;27.63;18.40;;;;;;;;;;491276;28;1091;-70
2024/01/07 00:09:59;;;;;;;27.35;18.35;;;;;;;;;;487659;28;980;-70
2024/01/07 00:10:14;;;;;;;27.57;18.37;;;;;;;;;;488302;28;1163;-69
2024/01/07 00:10:30;;;;;;;27.55;18.58;;;;;;;;;;489845;28;955;-70
2024/01/07 00:10:45;;;;;;;27.80;18.70;;;;;;;;;;492210;28;1294;-68
2024/01/07 00:11:01;;;;;;;28.92;18.83;;;;;;;;;;491887;28;1528;-68
2024/01/07 00:11:17;;;;;;;28.30;18.63;;;;;;;;;;490835;28;1386;-69
2024/01/07 00:11:32;;;;;;;27.43;18.17;;;;;;;;;;492790;28;1377;-69
2024/01/07 00:11:49;;;;;;;27.77;18.20;;;;;;;;;;492435;28;1197;-69
2024/01/07 00:12:04;;;;;;;27.80;18.45;;;;;;;;;;490995;28;1014;-69
2024/01/07 00:12:20;;;;;;;28.00;18.65;;;;;;;;;;489992;28;1285;-69
2024/01/07 00:12:36;;;;;;;28.40;18.67;;;;;;;;;;485182;28;1271;-70
2024/01/07 00:12:52;;;;;;;27.13;18.47;;;;;;;;;;481946;28;1173;-69
2024/01/07 00:13:07;;;;;;;27.40;18.75;;;;;;;;;;486069;28;1383;-68
2024/01/07 00:13:23;;;;;;;28.43;19.07;;;;;;;;;;485637;28;1062;-68
2024/01/07 00:13:38;;;;;;;28.52;18.95;;;;;;;;;;485652;28;1247;-69
2024/01/07 00:13:54;;;;;;;29.07;18.73;;;;;;;;;;486275;28;1121;-68
2024/01/07 00:14:09;;;;;;;29.02;18.75;;;;;;;;;;488831;28;1458;-68
2024/01/07 00:14:25;;;;;;;28.80;18.77;;;;;;;;;;485814;28;1309;-68
2024/01/07 00:14:41;;;;;;;29.00;18.70;;;;;;;;;;488347;28;1366;-70
2024/01/07 00:14:56;;;;;;;28.17;18.60;;;;;;;;;;487815;28;915;-69
2024/01/07 00:15:12;;;;;;;27.30;18.50;;;;;;;;;;487243;28;1305;-69
2024/01/07 00:15:27;;;;;;;26.42;18.30;;;;;;;;;;486347;28;1983;-69
2024/01/07 00:15:43;;;;;;;26.57;18.13;;;;;;;;;;487613;28;1272;-69
2024/01/07 00:15:58;;;;;;;27.83;18.50;;;;;;;;;;485715;28;1073;-69
2024/01/07 00:16:14;;;;;;;28.13;18.50;;;;;;;;;;490212;28;1278;-69
2024/01/07 00:16:30;;;;;;;28.77;18.52;;;;;;;;;;487141;28;1217;-69
2024/01/07 00:16:45;;;;;;;29.25;18.75;;;;;;;;;;486965;28;1318;-68
2024/01/07 00:17:01;;;;;;;28.30;19.00;;;;;;;;;;488166;28;1027;-69
2024/01/07 00:17:16;;;;;;;27.70;18.92;;;;;;;;;;487422;28;1656;-69
2024/01/07 00:17:32;;;;;;;27.40;18.33;;;;;;;;;;484040;28;1254;-69
2024/01/07 00:17:47;;;;;;;25.60;17.73;;;;;;;;;;482762;28;1276;-69
2024/01/07 00:18:03;;;;;;;26.80;18.13;;;;;;;;;;483463;28;1054;-69
2024/01/07 00:18:18;;;;;;;28.15;18.40;;;;;;;;;;484886;28;958;-70
2024/01/07 00:18:34;;;;;;;27.15;18.08;;;;;;;;;;485896;28;1228;-69
2024/01/07 00:18:53;;;;;;;26.00;17.93;;;;;;;;;;487729;28;1228;-69
2024/01/07 00:19:09;;;;;;;27.00;18.15;;;;;;;;;;491497;28;1300;-69
2024/01/07 00:19:25;;;;;;;26.73;18.13;;;;;;;;;;489435;28;1066;-69
2024/01/07 00:19:41;;;;;;;26.85;18.10;;;;;;;;;;488580;28;1387;-69
2024/01/07 00:19:57;;;;;;;27.95;18.33;;;;;;;;;;487806;28;1122;-69
2024/01/07 00:20:12;;;;;;;27.48;18.48;;;;;;;;;;492122;28;956;-69
2024/01/07 00:20:28;;;;;;;26.63;18.17;;;;;;;;;;485154;28;1251;-69
2024/01/07 00:20:43;;;;;;;26.80;17.80;;;;;;;;;;484513;28;1051;-69
2024/01/07 00:20:59;;;;;;;26.70;18.10;;;;;;;;;;483697;28;1225;-69
2024/01/07 00:21:14;;;;;;;27.23;18.27;;;;;;;;;;483675;28;1265;-69
2024/01/07 00:21:31;;;;;;;27.85;18.58;;;;;;;;;;484583;28;1250;-69
2024/01/07 00:21:46;;;;;;;27.98;18.80;;;;;;;;;;485320;28;1477;-69
2024/01/07 00:22:02;;;;;;;27.42;18.40;;;;;;;;;;486896;28;1304;-69
2024/01/07 00:22:17;;;;;;;26.73;18.37;;;;;;;;;;486338;28;1071;-69
2024/01/07 00:22:33;;;;;;;27.27;18.40;;;;;;;;;;489315;28;1237;-69
2024/01/07 00:22:48;;;;;;;28.65;18.50;;;;;;;;;;483164;28;1266;-69
2024/01/07 00:23:04;;;;;;;29.13;19.07;;;;;;;;;;486151;28;1071;-69
2024/01/07 00:23:20;;;;;;;28.63;19.37;;;;;;;;;;484451;28;1093;-70
2024/01/07 00:23:35;;;;;;;27.85;18.83;;;;;;;;;;480466;28;1374;-69
2024/01/07 00:23:51;;;;;;;27.57;18.53;;;;;;;;;;485092;28;1327;-69
2024/01/07 00:24:06;;;;;;;28.13;18.50;;;;;;;;;;488400;28;1423;-69
2024/01/07 00:24:25;;;;;;;27.17;18.03;;;;;;;;;;490056;28;930;-69
2024/01/07 00:24:40;;;;;;;26.23;17.95;;;;;;;;;;488308;28;987;-68
2024/01/07 00:24:56;;;;;;;26.30;18.30;;;;;;;;;;487815;28;1424;-69
2024/01/07 00:25:11;;;;;;;26.10;18.30;;;;;;;;;;487892;28;1266;-69
2024/01/07 00:25:27;;;;;;;27.00;18.60;;;;;;;;;;488026;28;1034;-70
2024/01/07 00:25:42;;;;;;;27.47;19.03;;;;;;;;;;485806;28;1347;-69
2024/01/07 00:25:58;;;;;;;28.45;19.13;;;;;;;;;;487029;28;1042;-69
2024/01/07 00:26:13;;;;;;;28.87;18.90;;;;;;;;;;489553;28;1071;-71
2024/01/07 00:26:29;;;;;;;27.60;18.30;;;;;;;;;;486069;28;974;-69
2024/01/07 00:26:45;;;;;;;26.75;18.10;;;;;;;;;;488144;28;1030;-69
2024/01/07 00:27:00;;;;;;;27.67;18.30;;;;;;;;;;486297;28;965;-69
2024/01/07 00:27:16;;;;;;;27.95;18.23;;;;;;;;;;490857;28;1353;-69
2024/01/07 00:27:31;;;;;;;26.42;17.92;;;;;;;;;;490480;28;1338;-69
2024/01/07 00:27:47;;;;;;;26.70;18.03;;;;;;;;;;489176;28;982;-69
2024/01/07 00:28:02;;;;;;;27.75;18.27;;;;;;;;;;488780;28;1191;-69
2024/01/07 00:28:18;;;;;;;26.90;17.87;;;;;;;;;;491731;28;1146;-69
2024/01/07 00:28:33;;;;;;;26.40;18.02;;;;;;;;;;487598;28;1334;-69
2024/01/07 00:28:49;;;;;;;26.50;18.30;;;;;;;;;;487720;28;1280;-69
2024/01/07 00:29:05;;;;;;;26.88;18.20;;;;;;;;;;487809;28;1070;-69
2024/01/07 00:29:21;;;;;;;26.40;18.05;;;;;;;;;;488226;28;1051;-71
2024/01/07 00:29:37;;;;;;;25.80;18.35;;;;;;;;;;492657;28;1051;-69
2024/01/07 00:29:52;;;;;;;25.83;18.08;;;;;;;;;;490380;28;1350;-69
2024/01/07 00:30:08;;;;;;;26.17;17.93;;;;;;;;;;488177;28;1257;-70
2024/01/07 00:30:23;;;;;;;27.17;18.35;;;;;;;;;;487944;28;1167;-69
2024/01/07 00:30:39;;;;;;;27.15;18.63;;;;;;;;;;486410;28;1235;-68
2024/01/07 00:30:54;;;;;;;26.00;18.47;;;;;;;;;;486304;28;1744;-69
2024/01/07 00:31:12;;;;;;;26.23;18.50;;;;;;;;;;487983;28;1320;-70
2024/01/07 00:31:28;;;;;;;26.85;18.67;;;;;;;;;;486359;28;1028;-69
2024/01/07 00:31:44;;;;;;;26.83;18.10;;;;;;;;;;487799;28;1304;-69
2024/01/07 00:31:59;;;;;;;26.48;18.10;;;;;;;;;;488652;28;1239;-69
2024/01/07 00:32:15;;;;;;;26.53;18.40;;;;;;;;;;487800;28;1198;-68
2024/01/07 00:32:30;;;;;;;26.15;18.25;;;;;;;;;;487786;28;1208;-69
2024/01/07 00:32:46;;;;;;;27.67;18.80;;;;;;;;;;489119;28;1202;-70
2024/01/07 00:33:01;;;;;;;27.42;18.65;;;;;;;;;;485707;28;1240;-69
2024/01/07 00:33:16;;;;;;;25.57;18.13;;;;;;;;;;488634;28;1430;-67
2024/01/07 00:33:32;;;;;;;25.90;18.13;;;;;;;;;;485759;28;1113;-69
2024/01/07 00:33:47;;;;;;;26.87;18.67;;;;;;;;;;487147;28;1022;-68
2024/01/07 00:34:03;;;;;;;26.17;18.67;;;;;;;;;;484192;28;1247;-69
2024/01/07 00:34:18;;;;;;;26.30;18.23;;;;;;;;;;490142;28;1296;-69
2024/01/07 00:34:34;;;;;;;26.48;18.27;;;;;;;;;;486225;28;1352;-69
2024/01/07 00:34:50;;;;;;;26.20;18.40;;;;;;;;;;485745;28;1409;-69
2024/01/07 00:35:05;;;;;;;26.93;18.20;;;;;;;;;;489322;28;964;-69
2024/01/07 00:35:21;;;;;;;25.70;17.85;;;;;;;;;;489572;28;1363;-69
2024/01/07 00:35:36;;;;;;;25.70;17.93;;;;;;;;;;490690;28;1921;-70
2024/01/07 00:35:52;;;;;;;27.00;18.15;;;;;;;;;;494088;28;932;-70
2024/01/07 00:36:08;;;;;;;26.02;18.17;;;;;;;;;;492691;28;1263;-69
2024/01/07 00:36:23;;;;;;;25.33;17.77;;;;;;;;;;493170;28;1172;-70
2024/01/07 00:36:38;;;;;;;26.30;18.23;;;;;;;;;;490373;28;1080;-69
2024/01/07 00:36:54;;;;;;;26.47;18.77;;;;;;;;;;491937;28;1161;-69
2024/01/07 00:37:10;;;;;;;26.08;18.35;;;;;;;;;;487057;28;1041;-69
2024/01/07 00:37:25;;;;;;;26.60;18.30;;;;;;;;;;493442;28;1498;-69
2024/01/07 00:37:41;;;;;;;26.27;18.13;;;;;;;;;;493236;28;987;-69
2024/01/07 00:37:57;;;;;;;25.70;18.23;;;;;;;;;;491801;28;938;-68
2024/01/07 00:38:12;;;;;;;25.73;18.30;;;;;;;;;;489884;28;1181;-70
2024/01/07 00:38:28;;;;;;;24.95;18.10;;;;;;;;;;490817;28;905;-70
2024/01/07 00:38:43;;;;;;;24.95;17.90;;;;;;;;;;487608;28;1024;-69
2024/01/07 00:38:59;;;;;;;24.47;17.43;;;;;;;;;;486640;28;1102;-69
2024/01/07 00:39:14;;;;;;;26.42;18.05;;;;;;;;;;493132;28;1280;-69
2024/01/07 00:39:30;;;;;;;27.00;18.47;;;;;;;;;;490527;28;925;-70
2024/01/07 00:39:45;;;;;;;25.20;18.02;;;;;;;;;;487694;28;1234;-70
2024/01/07 00:40:01;;;;;;;25.13;17.60;;;;;;;;;;484974;28;1322;-69
2024/01/07 00:40:17;;;;;;;26.52;17.92;;;;;;;;;;489820;28;1249;-69
2024/01/07 00:40:32;;;;;;;27.10;18.80;;;;;;;;;;490313;28;1120;-69
2024/01/07 00:40:48;;;;;;;25.97;18.57;;;;;;;;;;491871;28;1141;-69
2024/01/07 00:41:04;;;;;;;25.75;18.30;;;;;;;;;;488910;28;1153;-69
2024/01/07 00:41:20;;;;;;;26.42;18.48;;;;;;;;;;486779;28;1402;-68
2024/01/07 00:41:35;;;;;;;27.85;19.02;;;;;;;;;;486142;28;1140;-69
2024/01/07 00:41:51;;;;;;;26.93;18.83;;;;;;;;;;486231;28;1168;-68
2024/01/07 00:42:06;;;;;;;25.48;18.45;;;;;;;;;;492247;28;948;-69
2024/01/07 00:42:22;;;;;;;26.33;18.53;;;;;;;;;;491457;28;1165;-69
2024/01/07 00:42:37;;;;;;;26.85;18.55;;;;;;;;;;490012;28;1297;-69
2024/01/07 00:42:53;;;;;;;26.47;18.77;;;;;;;;;;489551;28;1661;-70
2024/01/07 00:43:08;;;;;;;26.40;18.80;;;;;;;;;;498016;28;1123;-68
2024/01/07 00:43:24;;;;;;;26.70;18.57;;;;;;;;;;495604;28;1014;-69
2024/01/07 00:43:40;;;;;;;26.02;18.30;;;;;;;;;;488153;28;1347;-69
2024/01/07 00:43:56;;;;;;;24.83;18.05;;;;;;;;;;487038;28;1029;-69
2024/01/07 00:44:11;;;;;;;24.23;17.60;;;;;;;;;;489922;28;1248;-69
2024/01/07 00:44:27;;;;;;;25.38;17.80;;;;;;;;;;486933;28;1357;-69
2024/01/07 00:44:42;;;;;;;26.20;18.20;;;;;;;;;;486480;28;1006;-69
2024/01/07 00:44:58;;;;;;;25.45;17.92;;;;;;;;;;487462;28;956;-69
2024/01/07 00:45:13;;;;;;;24.90;17.73;;;;;;;;;;489395;28;1123;-69
2024/01/07 00:45:29;;;;;;;25.73;17.92;;;;;;;;;;492032;28;1018;-69
2024/01/07 00:45:44;;;;;;;26.10;18.20;;;;;;;;;;489143;28;1324;-67
2024/01/07 00:46:00;;;;;;;25.27;17.95;;;;;;;;;;489964;28;1258;-67
2024/01/07 00:46:15;;;;;;;25.20;17.90;;;;;;;;;;488060;28;1038;-67
2024/01/07 00:46:31;;;;;;;25.73;18.02;;;;;;;;;;486696;28;1487;-68
2024/01/07 00:46:46;;;;;;;24.73;17.83;;;;;;;;;;485840;28;1118;-68
2024/01/07 00:47:02;;;;;;;25.02;18.10;;;;;;;;;;487978;28;1343;-68
2024/01/07 00:47:17;;;;;;;26.00;18.03;;;;;;;;;;491631;28;1176;-68
2024/01/07 00:47:33;;;;;;;25.90;18.00;;;;;;;;;;487763;28;1188;-69
2024/01/07 00:47:49;;;;;;;25.08;17.95;;;;;;;;;;486134;28;975;-69
2024/01/07 00:48:04;;;;;;;24.80;17.73;;;;;;;;;;490994;28;951;-70
2024/01/07 00:48:20;;;;;;;24.73;17.65;;;;;;;;;;488819;28;967;-72
2024/01/07 00:48:36;;;;;;;24.80;17.58;;;;;;;;;;489093;28;1254;-69
2024/01/07 00:48:51;;;;;;;25.50;17.67;;;;;;;;;;487142;28;1243;-69
2024/01/07 00:49:06;;;;;;;26.48;17.77;;;;;;;;;;484498;28;925;-68
2024/01/07 00:49:22;;;;;;;26.53;18.10;;;;;;;;;;488865;28;1195;-69
2024/01/07 00:49:40;;;;;;;24.83;17.75;;;;;;;;;;491885;28;1093;-69
2024/01/07 00:49:55;;;;;;;24.38;17.38;;;;;;;;;;492141;28;1414;-69
2024/01/07 00:50:11;;;;;;;24.55;17.42;;;;;;;;;;495286;28;1277;-69
2024/01/07 00:50:26;;;;;;;25.10;17.43;;;;;;;;;;487961;28;1258;-69
2024/01/07 00:50:42;;;;;;;26.25;18.13;;;;;;;;;;488676;28;1046;-69
2024/01/07 00:50:58;;;;;;;25.95;18.42;;;;;;;;;;490847;28;969;-69
2024/01/07 00:51:14;;;;;;;25.63;17.77;;;;;;;;;;489745;28;1302;-69
2024/01/07 00:51:29;;;;;;;24.87;17.47;;;;;;;;;;484526;28;1269;-70
2024/01/07 00:51:45;;;;;;;26.08;17.80;;;;;;;;;;483108;28;1364;-69
2024/01/07 00:52:00;;;;;;;26.03;17.70;;;;;;;;;;486927;28;1301;-69
2024/01/07 00:52:16;;;;;;;25.67;17.90;;;;;;;;;;489385;28;1031;-69
2024/01/07 00:52:31;;;;;;;26.48;18.15;;;;;;;;;;487114;28;1318;-69
2024/01/07 00:52:47;;;;;;;25.57;17.60;;;;;;;;;;487564;28;1058;-69
2024/01/07 00:53:02;;;;;;;25.53;17.63;;;;;;;;;;489619;28;1049;-69
2024/01/07 00:53:18;;;;;;;24.83;17.38;;;;;;;;;;489743;28;1082;-68
2024/01/07 00:53:33;;;;;;;24.90;17.60;;;;;;;;;;492027;28;945;-68
2024/01/07 00:53:48;;;;;;;25.20;17.83;;;;;;;;;;488959;28;1169;-68
2024/01/07 00:54:06;;;;;;;25.80;17.85;;;;;;;;;;489959;28;1253;-68
2024/01/07 00:54:21;;;;;;;25.27;17.83;;;;;;;;;;490285;28;1145;-69
2024/01/07 00:54:37;;;;;;;24.53;17.37;;;;;;;;;;490915;28;1173;-69
2024/01/07 00:54:53;;;;;;;26.27;17.35;;;;;;;;;;488022;28;1214;-69
2024/01/07 00:55:08;;;;;;;26.52;17.45;;;;;;;;;;493509;28;981;-68
2024/01/07 00:55:24;;;;;;;26.48;17.95;;;;;;;;;;493962;28;1969;-69
2024/01/07 00:55:40;;;;;;;27.40;18.57;;;;;;;;;;491806;28;1097;-68
2024/01/07 00:55:55;;;;;;;26.65;18.35;;;;;;;;;;490027;28;1282;-69
2024/01/07 00:56:11;;;;;;;27.23;18.10;;;;;;;;;;495569;28;1255;-69
2024/01/07 00:56:27;;;;;;;27.40;17.92;;;;;;;;;;490769;28;1068;-69
2024/01/07 00:56:42;;;;;;;25.75;17.55;;;;;;;;;;490721;28;1120;-69
2024/01/07 00:56:58;;;;;;;26.30;18.20;;;;;;;;;;490615;28;1124;-70
2024/01/07 00:57:13;;;;;;;27.25;18.55;;;;;;;;;;489899;28;1203;-70
2024/01/07 00:57:29;;;;;;;25.75;18.15;;;;;;;;;;484203;28;1269;-69
2024/01/07 00:57:45;;;;;;;24.67;17.90;;;;;;;;;;484393;28;1542;-68
2024/01/07 00:58:00;;;;;;;26.73;17.97;;;;;;;;;;488437;28;1266;-68
2024/01/07 00:58:16;;;;;;;27.95;18.42;;;;;;;;;;491939;28;1255;-69
2024/01/07 00:58:32;;;;;;;26.60;18.13;;;;;;;;;;494323;28;967;-69
2024/01/07 00:58:48;;;;;;;26.10;17.97;;;;;;;;;;489748;28;1114;-69
2024/01/07 00:59:03;;;;;;;27.27;18.30;;;;;;;;;;494000;28;1097;-69
2024/01/07 00:59:19;;;;;;;27.05;18.02;;;;;;;;;;492920;28;1118;-69
2024/01/07 00:59:34;;;;;;;25.00;17.67;;;;;;;;;;494055;28;1317;-68
2024/01/07 00:59:50;;;;;;;26.42;18.15;;;;;;;;;;490510;28;1030;-69
2024/01/07 01:00:06;;;;;;;28.05;17.83;;;;;;;;;;494377;28;1432;-69
2024/01/07 01:00:22;;;;;;;26.95;17.73;;;;;;;;;;491900;28;1124;-68
2024/01/07 01:00:38;;;;;;;27.25;18.08;;;;;;;;;;492108;28;1060;-69
2024/01/07 01:00:53;;;;;;;28.07;18.00;;;;;;;;;;495801;28;1272;-69
2024/01/07 01:01:09;;;;;;;27.58;18.23;;;;;;;;;;492921;28;1289;-68
2024/01/07 01:01:24;;;;;;;26.08;17.98;;;;;;;;;;490324;28;1169;-68
2024/01/07 01:01:40;;;;;;;27.07;18.20;;;;;;;;;;491414;28;1081;-68
2024/01/07 01:01:56;;;;;;;27.77;18.58;;;;;;;;;;493438;28;1085;-69
2024/01/07 01:02:11;;;;;;;26.97;18.33;;;;;;;;;;493480;28;1076;-69
2024/01/07 01:02:26;;;;;;;26.52;18.10;;;;;;;;;;489069;28;1238;-68
2024/01/07 01:02:42;;;;;;;26.77;18.27;;;;;;;;;;489497;28;1341;-69
2024/01/07 01:02:58;;;;;;;28.15;18.52;;;;;;;;;;491248;28;1321;-69
2024/01/07 01:03:13;;;;;;;28.20;18.40;;;;;;;;;;492501;28;1078;-68
2024/01/07 01:03:29;;;;;;;27.63;18.47;;;;;;;;;;490922;28;1148;-69
2024/01/07 01:03:44;;;;;;;28.10;18.52;;;;;;;;;;486207;28;1231;-69
2024/01/07 01:04:00;;;;;;;28.07;18.03;;;;;;;;;;488879;28;1291;-69
2024/01/07 01:04:16;;;;;;;28.75;18.35;;;;;;;;;;492166;28;965;-68
2024/01/07 01:04:31;;;;;;;30.00;18.90;;;;;;;;;;491537;28;1063;-68
2024/01/07 01:04:47;;;;;;;30.58;18.80;;;;;;;;;;488724;28;1554;-69
2024/01/07 01:05:03;;;;;;;29.48;18.83;;;;;;;;;;488588;28;1184;-68
2024/01/07 01:05:18;;;;;;;28.33;18.58;;;;;;;;;;488949;28;1006;-69
2024/01/07 01:05:34;;;;;;;28.67;18.50;;;;;;;;;;487370;28;1219;-69
2024/01/07 01:05:50;;;;;;;29.00;18.77;;;;;;;;;;488267;28;1014;-68
2024/01/07 01:06:05;;;;;;;27.90;18.70;;;;;;;;;;488224;28;1221;-69
2024/01/07 01:06:21;;;;;;;28.33;18.63;;;;;;;;;;489321;28;918;-68
2024/01/07 01:06:36;;;;;;;30.63;19.13;;;;;;;;;;489018;28;1247;-68
2024/01/07 01:06:52;;;;;;;29.97;19.10;;;;;;;;;;490242;28;1327;-68
2024/01/07 01:07:08;;;;;;;28.55;18.73;;;;;;;;;;493500;28;1462;-68
2024/01/07 01:07:23;;;;;;;29.45;18.90;;;;;;;;;;489669;28;1079;-68
2024/01/07 01:07:39;;;;;;;30.00;18.93;;;;;;;;;;489538;28;1156;-69
2024/01/07 01:07:54;;;;;;;29.40;18.98;;;;;;;;;;489034;28;1299;-69
2024/01/07 01:08:10;;;;;;;28.83;19.10;;;;;;;;;;491052;28;1199;-69
2024/01/07 01:08:25;;;;;;;29.40;19.23;;;;;;;;;;485844;28;1061;-68
2024/01/07 01:08:41;;;;;;;30.17;19.60;;;;;;;;;;487221;28;1244;-69
2024/01/07 01:08:56;;;;;;;29.60;19.45;;;;;;;;;;489204;28;1401;-69
2024/01/07 01:09:12;;;;;;;30.20;19.05;;;;;;;;;;485811;28;1300;-68
2024/01/07 01:09:29;;;;;;;30.90;19.23;;;;;;;;;;483443;28;1299;-68
2024/01/07 01:09:44;;;;;;;30.55;19.35;;;;;;;;;;483371;28;923;-70
2024/01/07 01:10:00;;;;;;;30.27;19.23;;;;;;;;;;485008;28;1070;-69
2024/01/07 01:10:16;;;;;;;31.00;19.37;;;;;;;;;;485722;28;1334;-69
2024/01/07 01:10:32;;;;;;;31.45;19.30;;;;;;;;;;483868;28;1087;-69
2024/01/07 01:10:48;;;;;;;30.27;18.47;;;;;;;;;;487787;28;1308;-68
2024/01/07 01:11:03;;;;;;;29.75;18.70;;;;;;;;;;485704;28;1282;-69
2024/01/07 01:11:19;;;;;;;29.75;19.05;;;;;;;;;;491036;28;1024;-69
2024/01/07 01:11:34;;;;;;;27.90;18.57;;;;;;;;;;490227;28;1095;-68
2024/01/07 01:11:50;;;;;;;28.75;18.52;;;;;;;;;;486316;28;1137;-69
2024/01/07 01:12:05;;;;;;;31.27;19.37;;;;;;;;;;484855;28;1272;-69
2024/01/07 01:12:21;;;;;;;31.08;19.40;;;;;;;;;;489270;28;1428;-69
2024/01/07 01:12:36;;;;;;;30.97;19.33;;;;;;;;;;487819;28;1127;-69
2024/01/07 01:12:54;;;;;;;31.67;20.27;;;;;;;;;;489599;28;890;-69
2024/01/07 01:13:09;;;;;;;32.70;20.65;;;;;;;;;;485715;28;1271;-69
2024/01/07 01:13:25;;;;;;;32.97;20.17;;;;;;;;;;487808;28;1117;-69
2024/01/07 01:13:40;;;;;;;32.40;20.17;;;;;;;;;;488919;28;1355;-69
2024/01/07 01:13:56;;;;;;;32.67;20.40;;;;;;;;;;488252;28;1311;-69
2024/01/07 01:14:12;;;;;;;32.67;20.20;;;;;;;;;;489135;28;1339;-69
2024/01/07 01:14:27;;;;;;;33.43;20.03;;;;;;;;;;489692;28;1112;-69
2024/01/07 01:14:43;;;;;;;33.85;19.88;;;;;;;;;;489097;28;1418;-68
2024/01/07 01:14:58;;;;;;;33.45;20.35;;;;;;;;;;491386;28;1388;-69
2024/01/07 01:15:16;;;;;;;32.17;20.30;;;;;;;;;;494093;28;1206;-69
2024/01/07 01:15:31;;;;;;;31.55;19.83;;;;;;;;;;491529;28;1987;-69
2024/01/07 01:15:47;;;;;;;32.70;20.23;;;;;;;;;;494142;28;1180;-69
2024/01/07 01:16:03;;;;;;;32.05;19.90;;;;;;;;;;490837;28;1300;-70
2024/01/07 01:16:19;;;;;;;31.25;19.42;;;;;;;;;;490569;28;1299;-69
2024/01/07 01:16:34;;;;;;;31.83;19.83;;;;;;;;;;488948;28;1483;-69
2024/01/07 01:16:50;;;;;;;32.22;20.02;;;;;;;;;;486395;28;1063;-69
2024/01/07 01:17:05;;;;;;;33.03;19.70;;;;;;;;;;487284;28;1415;-69
2024/01/07 01:17:21;;;;;;;32.80;20.10;;;;;;;;;;487721;28;1744;-69
2024/01/07 01:17:37;;;;;;;31.95;19.90;;;;;;;;;;486661;28;1165;-68
2024/01/07 01:17:52;;;;;;;32.23;19.47;;;;;;;;;;487589;28;1213;-69
2024/01/07 01:18:07;;;;;;;32.75;19.98;;;;;;;;;;486313;28;1174;-69
2024/01/07 01:18:23;;;;;;;33.40;20.30;;;;;;;;;;486136;28;1286;-68
2024/01/07 01:18:39;;;;;;;33.63;19.88;;;;;;;;;;486711;28;1035;-69
2024/01/07 01:18:54;;;;;;;34.88;19.58;;;;;;;;;;486856;28;1232;-69
2024/01/07 01:19:10;;;;;;;33.63;19.37;;;;;;;;;;488452;28;1288;-68
2024/01/07 01:19:25;;;;;;;32.35;19.42;;;;;;;;;;490020;28;1259;-69
2024/01/07 01:19:41;;;;;;;33.50;19.90;;;;;;;;;;483435;28;1216;-69
2024/01/07 01:19:56;;;;;;;33.45;20.05;;;;;;;;;;490463;28;1312;-68
2024/01/07 01:20:12;;;;;;;34.53;20.60;;;;;;;;;;491051;28;1458;-68
2024/01/07 01:20:28;;;;;;;35.33;20.83;;;;;;;;;;492427;28;1358;-68
2024/01/07 01:20:43;;;;;;;32.92;19.80;;;;;;;;;;486179;28;1065;-69
2024/01/07 01:20:59;;;;;;;32.57;19.67;;;;;;;;;;484442;28;1481;-69
2024/01/07 01:21:14;;;;;;;32.95;19.73;;;;;;;;;;487212;28;1261;-68
2024/01/07 01:21:30;;;;;;;33.40;19.73;;;;;;;;;;486572;28;1265;-69
2024/01/07 01:21:45;;;;;;;33.95;19.98;;;;;;;;;;486543;28;978;-69
2024/01/07 01:22:01;;;;;;;33.28;20.05;;;;;;;;;;486139;28;932;-69
2024/01/07 01:22:17;;;;;;;35.43;20.40;;;;;;;;;;490196;28;1070;-69
2024/01/07 01:22:32;;;;;;;35.50;19.98;;;;;;;;;;487457;28;998;-69
2024/01/07 01:22:48;;;;;;;33.37;19.77;;;;;;;;;;491581;28;1112;-69
2024/01/07 01:23:03;;;;;;;35.63;20.65;;;;;;;;;;493530;28;1065;-69
2024/01/07 01:23:19;;;;;;;36.85;21.02;;;;;;;;;;492033;28;952;-69
2024/01/07 01:23:35;;;;;;;35.73;20.40;;;;;;;;;;493703;28;1366;-68
2024/01/07 01:23:50;;;;;;;34.70;19.90;;;;;;;;;;491669;28;1271;-69
2024/01/07 01:24:06;;;;;;;34.50;20.02;;;;;;;;;;491738;28;1106;-69
2024/01/07 01:24:21;;;;;;;35.70;20.63;;;;;;;;;;490586;28;1405;-69
2024/01/07 01:24:36;;;;;;;35.07;20.37;;;;;;;;;;492189;28;1002;-69
2024/01/07 01:24:53;;;;;;;34.97;20.15;;;;;;;;;;489910;28;1238;-71
2024/01/07 01:25:08;;;;;;;35.25;20.55;;;;;;;;;;490294;28;1283;-69
2024/01/07 01:25:24;;;;;;;35.65;20.95;;;;;;;;;;487583;28;1110;-69
2024/01/07 01:25:40;;;;;;;36.03;20.53;;;;;;;;;;486440;28;1133;-69
2024/01/07 01:25:55;;;;;;;36.25;20.17;;;;;;;;;;486413;28;1347;-70
2024/01/07 01:26:10;;;;;;;35.15;20.05;;;;;;;;;;487063;28;1292;-69
2024/01/07 01:26:26;;;;;;;34.53;19.90;;;;;;;;;;485645;28;1205;-69
2024/01/07 01:26:42;;;;;;;35.78;20.58;;;;;;;;;;489035;28;1303;-70
2024/01/07 01:26:57;;;;;;;34.03;20.37;;;;;;;;;;490070;28;1298;-69
2024/01/07 01:27:14;;;;;;;33.33;19.63;;;;;;;;;;487979;28;902;-69
2024/01/07 01:27:29;;;;;;;34.67;19.77;;;;;;;;;;491135;28;1181;-70
2024/01/07 01:27:45;;;;;;;33.20;19.73;;;;;;;;;;486753;28;1262;-69
2024/01/07 01:28:00;;;;;;;33.30;19.90;;;;;;;;;;491527;28;1166;-70
2024/01/07 01:28:16;;;;;;;35.60;20.27;;;;;;;;;;491838;28;1206;-69
2024/01/07 01:28:32;;;;;;;37.28;20.92;;;;;;;;;;486420;28;1255;-69
2024/01/07 01:28:48;;;;;;;37.45;21.58;;;;;;;;;;489381;28;1066;-70
2024/01/07 01:29:03;;;;;;;37.37;21.00;;;;;;;;;;486840;28;1097;-69
2024/01/07 01:29:19;;;;;;;38.30;20.85;;;;;;;;;;488068;28;989;-69
2024/01/07 01:29:34;;;;;;;37.70;20.53;;;;;;;;;;483590;28;1435;-69
2024/01/07 01:29:50;;;;;;;36.65;20.23;;;;;;;;;;489942;28;1061;-70
2024/01/07 01:30:06;;;;;;;35.33;20.17;;;;;;;;;;490748;28;1087;-69
2024/01/07 01:30:21;;;;;;;35.75;20.42;;;;;;;;;;491595;28;1272;-70
2024/01/07 01:30:37;;;;;;;35.93;20.33;;;;;;;;;;492532;28;1178;-69
2024/01/07 01:30:53;;;;;;;36.47;20.63;;;;;;;;;;491395;28;1190;-69
2024/01/07 01:31:08;;;;;;;35.17;20.42;;;;;;;;;;489652;28;1402;-69
2024/01/07 01:31:24;;;;;;;32.90;19.70;;;;;;;;;;492684;28;1291;-69
2024/01/07 01:31:39;;;;;;;34.47;20.15;;;;;;;;;;494362;28;1176;-69
2024/01/07 01:31:54;;;;;;;34.93;20.43;;;;;;;;;;495617;28;1068;-69
2024/01/07 01:32:10;;;;;;;33.90;19.90;;;;;;;;;;491369;28;1466;-69
2024/01/07 01:32:25;;;;;;;32.67;19.53;;;;;;;;;;488923;28;1066;-69
2024/01/07 01:32:41;;;;;;;32.40;20.05;;;;;;;;;;490081;28;1020;-69
2024/01/07 01:32:57;;;;;;;32.63;19.80;;;;;;;;;;487416;28;1312;-69
2024/01/07 01:33:12;;;;;;;33.38;20.00;;;;;;;;;;489274;28;1377;-68
2024/01/07 01:33:28;;;;;;;34.45;20.20;;;;;;;;;;490421;28;1100;-68
2024/01/07 01:33:44;;;;;;;36.47;20.50;;;;;;;;;;489322;28;1175;-69
2024/01/07 01:33:59;;;;;;;36.78;20.45;;;;;;;;;;487981;28;1370;-69
2024/01/07 01:34:15;;;;;;;35.85;20.40;;;;;;;;;;496034;28;1322;-69